Denmark, Iowa
Current Conditions -  °F | °C
As of 2:15 AM on Monday 24 Nov 2014 (Local Time) from KFSW Reporting Station
Haze Haze  
Wind Chill: -3°   Ceiling: 1200
Heat Index:   Visibility: 3mi
Dew Point:   Wind: 21mph
Humidity: 100%   Direction: 300°WNW
Pressure: 29.26"   Gusts: 30mph
Location:  40.74°N, 91.34°W
Report Text: KFSW 240815Z AUTO 30018G26KT 3SM BR OVC012 03/03 A2926 RMK AO2
Loading
Personal Weather Stations






























Interactive Weather Map New forecast layout! Learn more

10-Day Weather Forecast

Advertisements
Track Severe Weather on mobile